createdAt,value
2017-06-23T00:01:36.627Z,22.10
2017-06-23T00:04:04.134Z,16.83
2017-06-23T00:06:31.656Z,17.57
2017-06-23T00:08:59.150Z,22.37
2017-06-23T00:11:27.398Z,28.10
2017-06-23T00:13:54.920Z,17.17
2017-06-23T00:16:22.411Z,25.13
2017-06-23T00:18:49.906Z,18.80
2017-06-23T00:21:17.426Z,21.33
2017-06-23T00:23:45.041Z,21.77
2017-06-23T00:26:12.522Z,21.00
2017-06-23T00:28:40.079Z,19.00
2017-06-23T00:31:07.558Z,15.20
2017-06-23T00:33:35.062Z,15.17
2017-06-23T00:36:02.609Z,24.50
2017-06-23T00:38:30.918Z,19.63
2017-06-23T00:40:58.464Z,20.80
2017-06-23T00:43:26.023Z,19.13
2017-06-23T00:45:53.536Z,19.77
2017-06-23T00:48:21.142Z,21.97
2017-06-23T00:50:48.668Z,21.90
2017-06-23T00:53:16.163Z,17.87
2017-06-23T00:55:43.661Z,15.07
2017-06-23T00:58:11.299Z,17.20
2017-06-23T01:00:38.805Z,26.77
2017-06-23T01:03:06.333Z,16.63
2017-06-23T01:05:33.861Z,21.63
2017-06-23T01:08:01.376Z,13.00
2017-06-23T01:10:28.864Z,16.80
2017-06-23T01:12:57.152Z,12.63
2017-06-23T01:15:24.649Z,11.80
2017-06-23T01:17:52.155Z,11.00
2017-06-23T01:20:20.463Z,11.50
2017-06-23T01:22:47.983Z,13.27
2017-06-23T01:25:16.285Z,7.97
2017-06-23T01:27:43.809Z,9.90
2017-06-23T01:30:11.301Z,9.70
2017-06-23T01:32:38.790Z,10.53
2017-06-23T01:35:06.334Z,9.73
2017-06-23T01:37:33.823Z,13.43
2017-06-23T01:40:01.304Z,9.83
2017-06-23T01:42:29.198Z,8.43
2017-06-23T01:44:56.691Z,7.80
2017-06-23T01:47:24.185Z,6.43
2017-06-23T01:49:51.789Z,10.63
2017-06-23T01:52:19.346Z,7.33
2017-06-23T01:54:46.826Z,8.13
2017-06-23T01:57:14.376Z,9.60
2017-06-23T01:59:41.936Z,12.00
2017-06-23T02:02:09.416Z,7.90
2017-06-23T02:04:37.036Z,8.23
2017-06-23T02:07:04.557Z,7.00
2017-06-23T02:09:32.042Z,8.10
2017-06-23T02:12:00.435Z,12.90
2017-06-23T02:14:27.948Z,9.53
2017-06-23T02:16:55.436Z,8.47
2017-06-23T02:19:23.707Z,7.70
2017-06-23T02:21:51.985Z,6.70
2017-06-23T02:24:20.260Z,7.77
2017-06-23T02:26:47.784Z,10.60
2017-06-23T02:29:15.271Z,9.10
2017-06-23T02:31:43.524Z,12.57
2017-06-23T02:34:11.053Z,10.67
2017-06-23T02:36:38.542Z,9.53
2017-06-23T02:39:06.035Z,13.50
2017-06-23T02:41:34.338Z,13.23
2017-06-23T02:44:01.831Z,12.63
2017-06-23T02:46:29.319Z,10.90
2017-06-23T02:48:56.991Z,9.30
2017-06-23T02:51:25.258Z,13.20
2017-06-23T02:53:52.738Z,14.30
2017-06-23T02:56:21.022Z,10.93
2017-06-23T02:58:48.597Z,18.10
2017-06-23T03:01:16.098Z,14.87
2017-06-23T03:03:43.599Z,20.00
2017-06-23T03:06:11.126Z,17.57
2017-06-23T03:08:38.623Z,15.60
2017-06-23T03:13:40.103Z,24.70
2017-06-23T03:16:07.621Z,22.90
2017-06-23T03:18:35.921Z,20.70
2017-06-23T03:21:03.423Z,30.67
2017-06-23T03:23:30.953Z,30.03
2017-06-23T03:25:58.436Z,28.63
2017-06-23T03:28:25.945Z,23.40
2017-06-23T03:30:54.766Z,28.80
2017-06-23T03:33:22.265Z,33.27
2017-06-23T03:35:49.809Z,31.63
2017-06-23T03:38:17.335Z,26.20
2017-06-23T03:40:44.833Z,28.00
2017-06-23T03:43:12.342Z,32.03
2017-06-23T03:45:39.864Z,39.63
2017-06-23T03:48:07.370Z,32.10
2017-06-23T03:50:34.867Z,33.70
2017-06-23T03:53:02.395Z,32.77
2017-06-23T03:55:29.891Z,35.73
2017-06-23T03:57:57.406Z,36.70
2017-06-23T04:00:24.930Z,27.23
2017-06-23T04:02:53.283Z,33.77
2017-06-23T04:05:20.820Z,31.07
2017-06-23T04:07:48.336Z,37.17
2017-06-23T04:10:16.610Z,30.47
2017-06-23T04:12:44.872Z,34.67
2017-06-23T04:15:12.401Z,30.23
2017-06-23T04:17:39.906Z,35.70
2017-06-23T04:20:08.216Z,31.07
2017-06-23T04:22:35.741Z,40.33
2017-06-23T04:25:04.024Z,34.33
2017-06-23T04:27:32.299Z,40.73
2017-06-23T04:30:00.693Z,36.03
2017-06-23T04:32:28.183Z,33.20
2017-06-23T04:34:55.667Z,32.27
2017-06-23T04:37:23.289Z,35.47
2017-06-23T04:39:50.801Z,46.13
2017-06-23T04:42:19.126Z,45.20
2017-06-23T04:44:46.670Z,37.03
2017-06-23T04:47:14.185Z,44.17
2017-06-23T04:49:41.716Z,45.90
2017-06-23T04:52:09.273Z,39.17
2017-06-23T04:54:36.778Z,40.53
2017-06-23T04:57:05.067Z,42.60
2017-06-23T04:59:33.401Z,43.97
2017-06-23T05:02:00.915Z,39.23
2017-06-23T05:04:29.174Z,42.93
2017-06-23T05:06:56.729Z,47.47
2017-06-23T05:09:25.125Z,56.37
2017-06-23T05:11:54.358Z,42.53
2017-06-23T05:14:21.893Z,51.57
2017-06-23T05:16:49.379Z,46.07
2017-06-23T05:19:16.902Z,39.87
2017-06-23T05:21:45.216Z,39.23
2017-06-23T05:24:13.616Z,40.73
2017-06-23T05:26:41.124Z,41.23
2017-06-23T05:29:08.646Z,55.63
2017-06-23T05:31:36.152Z,44.13
2017-06-23T05:34:03.650Z,49.03
2017-06-23T05:36:31.695Z,49.30
2017-06-23T05:38:59.175Z,47.13
2017-06-23T05:41:26.668Z,40.67
2017-06-23T05:43:54.848Z,46.67
2017-06-23T05:46:23.102Z,43.03
2017-06-23T05:48:50.624Z,45.20
2017-06-23T05:51:18.157Z,37.30
2017-06-23T05:53:45.661Z,35.70
2017-06-23T05:56:13.175Z,36.47
2017-06-23T05:58:41.511Z,30.90
2017-06-23T06:01:09.525Z,36.73
2017-06-23T06:03:37.043Z,44.53
2017-06-23T06:06:04.561Z,32.53
2017-06-23T06:08:32.067Z,33.20
2017-06-23T06:10:59.601Z,34.77
2017-06-23T06:13:27.130Z,44.87
2017-06-23T06:15:54.613Z,48.87
2017-06-23T06:18:22.150Z,32.23
2017-06-23T06:20:49.774Z,42.93
2017-06-23T06:23:18.290Z,29.97
2017-06-23T06:25:45.866Z,44.03
2017-06-23T06:28:13.414Z,43.33
2017-06-23T06:30:40.889Z,33.97
2017-06-23T06:33:08.405Z,40.37
2017-06-23T06:35:37.754Z,37.77
2017-06-23T06:38:05.264Z,34.47
2017-06-23T06:40:33.548Z,33.03
2017-06-23T06:43:02.426Z,32.57
2017-06-23T06:45:30.011Z,33.57
2017-06-23T06:47:57.565Z,36.10
2017-06-23T06:50:25.834Z,39.30
2017-06-23T06:52:54.105Z,33.50
2017-06-23T06:55:22.378Z,32.13
2017-06-23T06:57:50.685Z,39.70
2017-06-23T07:00:18.197Z,34.90
2017-06-23T07:02:45.677Z,27.90
2017-06-23T07:05:13.965Z,33.67
2017-06-23T07:07:42.255Z,36.60
2017-06-23T07:10:09.799Z,40.13
2017-06-23T07:12:37.373Z,32.13
2017-06-23T07:15:04.872Z,37.20
2017-06-23T07:17:32.363Z,34.57
2017-06-23T07:19:59.879Z,27.77
2017-06-23T07:22:27.707Z,33.80
2017-06-23T07:24:55.247Z,30.90
2017-06-23T07:27:22.820Z,30.83
2017-06-23T07:29:51.074Z,28.63
2017-06-23T07:32:18.681Z,36.73
2017-06-23T07:34:46.215Z,33.23
2017-06-23T07:37:14.484Z,28.40
2017-06-23T07:39:42.798Z,28.43
2017-06-23T07:42:10.477Z,33.27
2017-06-23T07:44:38.097Z,29.23
2017-06-23T07:47:05.657Z,29.50
2017-06-23T07:49:34.637Z,37.90
2017-06-23T07:52:02.940Z,28.60
2017-06-23T07:54:30.482Z,26.43
2017-06-23T07:56:58.758Z,31.03
2017-06-23T07:59:26.249Z,32.43
2017-06-23T08:01:54.023Z,35.07
2017-06-23T08:04:21.522Z,35.80
2017-06-23T08:06:49.032Z,42.00
2017-06-23T08:09:17.351Z,32.63
2017-06-23T08:11:44.988Z,31.13
2017-06-23T08:14:13.296Z,31.53
2017-06-23T08:16:41.025Z,38.47
2017-06-23T08:19:08.555Z,31.83
2017-06-23T08:21:36.117Z,27.70
2017-06-23T08:24:03.647Z,35.80
2017-06-23T08:26:31.177Z,40.23
2017-06-23T08:28:58.817Z,31.27
2017-06-23T08:31:26.449Z,28.70
2017-06-23T08:33:54.764Z,30.90
2017-06-23T08:36:22.334Z,32.73
2017-06-23T08:38:49.957Z,30.67
2017-06-23T08:41:17.541Z,35.23
2017-06-23T08:43:45.696Z,26.00
2017-06-23T08:46:13.280Z,22.77
2017-06-23T08:48:40.814Z,21.97
2017-06-23T08:51:08.351Z,34.40
2017-06-23T08:53:36.619Z,25.23
2017-06-23T08:56:04.116Z,34.53
2017-06-23T08:58:31.798Z,28.50
2017-06-23T09:00:59.318Z,25.70
2017-06-23T09:03:26.884Z,39.17
2017-06-23T09:05:54.388Z,24.50
2017-06-23T09:08:21.906Z,26.13
2017-06-23T09:10:49.677Z,22.13
2017-06-23T09:13:18.554Z,17.97
2017-06-23T09:15:46.153Z,20.13
2017-06-23T09:18:13.691Z,22.10
2017-06-23T09:20:41.299Z,20.67
2017-06-23T09:23:08.835Z,22.93
2017-06-23T09:25:36.441Z,24.23
2017-06-23T09:28:03.999Z,23.80
2017-06-23T09:30:31.618Z,21.00
2017-06-23T09:32:59.397Z,21.23
2017-06-23T09:35:27.042Z,19.37
2017-06-23T09:37:54.568Z,24.33
2017-06-23T09:40:22.475Z,23.13
2017-06-23T09:42:50.055Z,18.67
2017-06-23T09:45:17.569Z,19.33
2017-06-23T09:47:45.127Z,26.93
2017-06-23T09:50:12.821Z,18.90
2017-06-23T09:52:40.398Z,13.63
2017-06-23T09:55:07.913Z,27.40
2017-06-23T09:57:35.436Z,17.13
2017-06-23T10:00:02.969Z,24.50
2017-06-23T10:02:30.478Z,22.40
2017-06-23T10:04:58.073Z,18.50
2017-06-23T10:07:25.584Z,20.20
2017-06-23T10:09:53.996Z,21.07
2017-06-23T10:12:21.593Z,21.03
2017-06-23T10:14:49.102Z,18.90
2017-06-23T10:17:16.694Z,22.17
2017-06-23T10:19:44.213Z,19.10
2017-06-23T10:22:11.801Z,18.80
2017-06-23T10:24:39.323Z,21.10
2017-06-23T10:27:07.579Z,19.20
2017-06-23T10:29:35.114Z,25.00
2017-06-23T10:32:02.642Z,24.60
2017-06-23T10:34:30.164Z,15.83
2017-06-23T10:36:57.706Z,22.97
2017-06-23T10:39:25.247Z,15.57
2017-06-23T10:41:52.752Z,15.07
2017-06-23T10:44:21.040Z,18.13
2017-06-23T10:46:49.417Z,24.03
2017-06-23T10:49:17.704Z,20.80
2017-06-23T10:51:45.221Z,14.83
2017-06-23T10:54:12.757Z,22.83
2017-06-23T10:56:40.271Z,23.80
2017-06-23T10:59:08.546Z,26.67
2017-06-23T11:01:36.989Z,14.80
2017-06-23T11:04:04.552Z,17.20
2017-06-23T11:06:32.060Z,24.93
2017-06-23T11:08:59.555Z,19.73
2017-06-23T11:11:27.895Z,16.13
2017-06-23T11:13:55.391Z,29.37
2017-06-23T11:16:23.037Z,16.23
2017-06-23T11:18:50.577Z,13.90
2017-06-23T11:21:18.143Z,14.20
2017-06-23T11:23:45.662Z,22.07
2017-06-23T11:26:13.159Z,10.83
2017-06-23T11:28:40.670Z,14.90
2017-06-23T11:31:08.213Z,16.53
2017-06-23T11:33:35.717Z,10.20
2017-06-23T11:36:04.036Z,20.80
2017-06-23T11:38:31.557Z,19.67
2017-06-23T11:40:59.839Z,16.30
2017-06-23T11:43:29.038Z,13.13
2017-06-23T11:45:57.339Z,17.67
2017-06-23T11:48:24.895Z,11.80
2017-06-23T11:50:52.414Z,14.83
2017-06-23T11:53:20.125Z,10.90
2017-06-23T11:55:47.684Z,12.27
2017-06-23T11:58:15.216Z,15.37
2017-06-23T12:00:42.787Z,12.00
2017-06-23T12:03:10.699Z,12.43
2017-06-23T12:05:38.234Z,12.30
2017-06-23T12:08:05.764Z,16.90
2017-06-23T12:10:33.317Z,12.67
2017-06-23T12:13:00.849Z,13.90
2017-06-23T12:15:28.407Z,12.47
2017-06-23T12:17:55.929Z,20.53
2017-06-23T12:20:23.451Z,15.03
2017-06-23T12:22:51.037Z,16.90
2017-06-23T12:25:18.594Z,10.60
2017-06-23T12:27:46.083Z,15.27
2017-06-23T12:30:13.599Z,16.40
2017-06-23T12:32:42.098Z,16.43
2017-06-23T12:35:09.773Z,18.87
2017-06-23T12:37:37.319Z,14.53
2017-06-23T12:40:04.889Z,13.67
2017-06-23T12:42:32.396Z,7.87
2017-06-23T12:44:59.912Z,17.50
2017-06-23T12:47:27.442Z,6.97
2017-06-23T12:49:54.940Z,6.80
2017-06-23T12:52:22.448Z,13.03
2017-06-23T12:54:50.761Z,9.60
2017-06-23T12:57:18.285Z,8.90
2017-06-23T12:59:46.614Z,7.70
2017-06-23T13:02:14.138Z,8.97
2017-06-23T13:04:42.034Z,7.87
2017-06-23T13:07:09.541Z,7.10
2017-06-23T13:09:37.042Z,8.73
2017-06-23T13:12:04.549Z,8.07
2017-06-23T13:14:32.065Z,8.80
2017-06-23T13:16:59.622Z,13.47
2017-06-23T13:19:27.168Z,7.93
2017-06-23T13:21:54.654Z,7.93
2017-06-23T13:24:22.188Z,12.70
2017-06-23T13:26:49.678Z,9.20
2017-06-23T13:29:17.186Z,10.80
2017-06-23T13:31:45.457Z,10.93
2017-06-23T13:34:13.755Z,6.60
2017-06-23T13:36:41.665Z,16.73
2017-06-23T13:39:09.150Z,8.77
2017-06-23T13:41:36.653Z,4.80
2017-06-23T13:44:04.162Z,9.10
2017-06-23T13:46:31.691Z,5.60
2017-06-23T13:48:59.227Z,12.33
2017-06-23T13:51:26.740Z,9.30
2017-06-23T13:53:54.236Z,9.23
2017-06-23T13:56:21.761Z,5.70
2017-06-23T13:58:49.251Z,9.30
2017-06-23T14:01:16.742Z,9.87
2017-06-23T14:03:44.288Z,6.37
2017-06-23T14:06:11.803Z,7.70
2017-06-23T14:08:39.423Z,6.90
2017-06-23T14:11:06.945Z,8.70
2017-06-23T14:13:35.274Z,7.40
2017-06-23T14:16:02.791Z,10.03
2017-06-23T14:18:30.345Z,8.17
2017-06-23T14:20:57.915Z,9.20
2017-06-23T14:23:25.489Z,17.73
2017-06-23T14:25:53.007Z,9.30
2017-06-23T14:28:21.352Z,13.53
2017-06-23T14:30:48.966Z,8.97
2017-06-23T14:33:16.620Z,11.77
2017-06-23T14:35:44.913Z,7.87
2017-06-23T14:38:12.494Z,9.77
2017-06-23T14:40:40.035Z,13.03
2017-06-23T14:43:07.576Z,5.73
2017-06-23T14:45:35.851Z,5.23
2017-06-23T14:48:04.167Z,13.10
2017-06-23T14:50:31.671Z,9.43
2017-06-23T14:55:34.754Z,6.93
2017-06-23T14:58:02.245Z,8.83
2017-06-23T15:00:30.617Z,12.93
2017-06-23T15:02:58.896Z,5.43
2017-06-23T15:05:27.182Z,7.13
2017-06-23T15:07:55.448Z,6.20
2017-06-23T15:10:23.748Z,7.00
2017-06-23T15:12:51.230Z,6.50
2017-06-23T15:15:18.745Z,5.67
2017-06-23T15:17:47.061Z,6.07
2017-06-23T15:20:14.553Z,5.47
2017-06-23T15:22:42.029Z,9.20
2017-06-23T15:25:09.559Z,5.40
2017-06-23T15:27:37.049Z,5.70
2017-06-23T15:30:04.549Z,6.40
2017-06-23T15:32:32.071Z,6.30
2017-06-23T15:35:00.399Z,5.07
2017-06-23T15:37:28.812Z,6.93
2017-06-23T15:39:56.355Z,9.13
2017-06-23T15:42:23.850Z,5.77
2017-06-23T15:44:52.126Z,9.73
2017-06-23T15:47:19.683Z,6.30
2017-06-23T15:49:47.248Z,8.70
2017-06-23T15:52:15.562Z,6.13
2017-06-23T15:54:43.066Z,6.30
2017-06-23T15:57:10.616Z,9.93
2017-06-23T15:59:38.116Z,6.03
2017-06-23T16:02:06.383Z,7.27
2017-06-23T16:04:34.665Z,8.60
2017-06-23T16:07:02.966Z,11.03
2017-06-23T16:09:30.479Z,8.53
2017-06-23T16:11:58.023Z,21.23
2017-06-23T16:14:26.622Z,20.13
2017-06-23T16:16:54.652Z,7.70
2017-06-23T16:19:24.426Z,6.87
2017-06-23T16:21:51.952Z,9.40
2017-06-23T16:24:19.474Z,8.37
2017-06-23T16:26:46.977Z,9.70
2017-06-23T16:29:14.508Z,11.53
2017-06-23T16:31:42.070Z,8.40
2017-06-23T16:34:09.615Z,10.53
2017-06-23T16:36:37.177Z,11.50
2017-06-23T16:39:04.740Z,10.70
2017-06-23T16:41:32.273Z,12.03
2017-06-23T16:43:59.820Z,10.77
2017-06-23T16:46:28.270Z,10.87
2017-06-23T16:48:55.804Z,8.87
2017-06-23T16:51:23.306Z,11.50
2017-06-23T16:53:50.849Z,15.43
2017-06-23T16:56:18.352Z,8.80
2017-06-23T16:58:45.926Z,11.73
2017-06-23T17:01:13.700Z,9.33
2017-06-23T17:03:41.362Z,9.33
2017-06-23T17:06:08.929Z,8.43
2017-06-23T17:08:36.588Z,11.00
2017-06-23T17:11:04.163Z,8.43
2017-06-23T17:13:31.640Z,10.90
2017-06-23T17:15:59.169Z,9.57
2017-06-23T17:18:26.710Z,18.53
2017-06-23T17:20:54.255Z,16.60
2017-06-23T17:23:21.945Z,14.37
2017-06-23T17:25:49.456Z,15.70
2017-06-23T17:28:17.805Z,12.17
2017-06-23T17:30:45.444Z,9.93
2017-06-23T17:33:12.934Z,9.57
2017-06-23T17:35:40.455Z,15.57
2017-06-23T17:38:08.025Z,11.30
2017-06-23T17:40:35.551Z,11.10
2017-06-23T17:43:03.111Z,10.30
2017-06-23T17:45:31.392Z,13.73
2017-06-23T17:47:58.920Z,15.20
2017-06-23T17:50:26.452Z,10.90
2017-06-23T17:52:53.964Z,15.93
2017-06-23T17:55:22.246Z,11.60
2017-06-23T17:57:49.847Z,10.90
2017-06-23T18:00:17.369Z,14.27
2017-06-23T18:02:44.977Z,14.43
2017-06-23T18:05:12.482Z,15.53
2017-06-23T18:07:39.985Z,17.63
2017-06-23T18:10:07.502Z,21.63
2017-06-23T18:12:35.817Z,13.63
2017-06-23T18:15:03.318Z,18.17
2017-06-23T18:17:30.823Z,15.23
2017-06-23T18:19:58.374Z,13.87
2017-06-23T18:22:26.390Z,14.90
2017-06-23T18:24:53.929Z,17.90
2017-06-23T18:27:21.486Z,20.20
2017-06-23T18:29:49.022Z,17.40
2017-06-23T18:32:16.799Z,27.80
2017-06-23T18:34:44.358Z,19.30
2017-06-23T18:37:11.891Z,18.10
2017-06-23T18:39:39.408Z,17.80
2017-06-23T18:42:07.126Z,20.93
2017-06-23T18:44:34.693Z,18.83
2017-06-23T18:47:02.498Z,19.17
2017-06-23T18:49:30.383Z,20.10
2017-06-23T18:51:58.136Z,20.53
2017-06-23T18:54:25.669Z,19.57
2017-06-23T18:56:53.235Z,20.13
2017-06-23T18:59:20.765Z,18.23
2017-06-23T19:01:48.306Z,25.73
2017-06-23T19:07:59.731Z,18.90
2017-06-23T19:10:27.415Z,19.40
2017-06-23T19:12:54.943Z,18.40
2017-06-23T19:15:22.612Z,18.80
2017-06-23T19:17:50.100Z,20.77
2017-06-23T19:20:17.610Z,20.83
2017-06-23T19:22:45.147Z,23.17
2017-06-23T19:25:12.663Z,17.37
2017-06-23T19:27:40.211Z,18.43
2017-06-23T19:30:07.759Z,22.57
2017-06-23T19:32:36.067Z,24.97
2017-06-23T19:35:03.730Z,20.10
2017-06-23T19:37:31.261Z,25.70
2017-06-23T19:39:58.786Z,36.30
2017-06-23T19:42:26.296Z,25.40
2017-06-23T19:44:53.810Z,26.37
2017-06-23T19:47:21.306Z,22.93
2017-06-23T19:49:48.845Z,21.23
2017-06-23T19:52:16.344Z,22.53
2017-06-23T19:54:43.877Z,21.70
2017-06-23T19:57:11.402Z,22.40
2017-06-23T19:59:38.936Z,20.20
2017-06-23T20:02:06.468Z,23.60
2017-06-23T20:04:33.992Z,28.30
2017-06-23T20:07:01.521Z,22.43
2017-06-23T20:09:29.063Z,28.93
2017-06-23T20:11:56.664Z,29.20
2017-06-23T20:14:24.182Z,41.50
2017-06-23T20:16:51.729Z,28.57
2017-06-23T20:19:19.260Z,32.70
2017-06-23T20:21:48.791Z,33.97
2017-06-23T20:24:16.312Z,26.90
2017-06-23T20:26:44.602Z,29.43
2017-06-23T20:29:12.187Z,28.10
2017-06-23T20:31:39.710Z,23.97
2017-06-23T20:34:08.011Z,31.37
2017-06-23T20:36:35.544Z,28.87
2017-06-23T20:39:03.067Z,32.27
2017-06-23T20:41:30.585Z,30.17
2017-06-23T20:43:58.931Z,24.87
2017-06-23T20:46:26.443Z,29.00
2017-06-23T20:48:53.958Z,24.87
2017-06-23T20:51:21.488Z,27.80
2017-06-23T20:53:48.996Z,28.67
2017-06-23T20:56:17.338Z,28.83
2017-06-23T20:58:44.887Z,26.47
2017-06-23T21:01:12.430Z,28.20
2017-06-23T21:03:40.990Z,37.03
2017-06-23T21:06:08.516Z,31.00
2017-06-23T21:08:36.028Z,32.50
2017-06-23T21:11:03.536Z,31.43
2017-06-23T21:13:31.043Z,31.27
2017-06-23T21:15:58.586Z,34.77
2017-06-23T21:18:26.125Z,37.50
2017-06-23T21:20:53.633Z,42.10
2017-06-23T21:23:21.184Z,39.57
2017-06-23T21:25:48.755Z,34.73
2017-06-23T21:28:16.316Z,33.93
2017-06-23T21:30:43.881Z,38.13
2017-06-23T21:33:11.405Z,32.63
2017-06-23T21:35:38.935Z,34.60
2017-06-23T21:38:06.496Z,34.07
2017-06-23T21:40:45.846Z,32.07
2017-06-23T21:43:13.388Z,31.63
2017-06-23T21:45:41.904Z,32.63
2017-06-23T21:48:09.493Z,32.17
2017-06-23T21:50:36.987Z,31.83
2017-06-23T21:53:04.536Z,29.17
2017-06-23T21:55:32.037Z,31.23
2017-06-23T21:57:59.567Z,28.33
2017-06-23T22:00:27.059Z,27.30
2017-06-23T22:02:54.724Z,28.60
2017-06-23T22:05:22.231Z,32.10
2017-06-23T22:07:49.738Z,29.90
2017-06-23T22:10:17.288Z,29.27
2017-06-23T22:12:44.809Z,31.73
2017-06-23T22:15:12.322Z,38.53
2017-06-23T22:17:39.844Z,33.87
2017-06-23T22:20:07.364Z,30.53
2017-06-23T22:22:34.871Z,33.37
2017-06-23T22:25:03.137Z,32.63
2017-06-23T22:27:30.684Z,30.20
2017-06-23T22:29:58.183Z,35.40
2017-06-23T22:32:25.726Z,30.00
2017-06-23T22:34:54.019Z,34.40
2017-06-23T22:37:22.305Z,34.30
2017-06-23T22:39:49.791Z,33.30
2017-06-23T22:42:17.347Z,30.63
2017-06-23T22:44:45.871Z,27.90
2017-06-23T22:47:13.394Z,28.03
2017-06-23T22:49:41.039Z,26.10
2017-06-23T22:52:08.589Z,32.77
2017-06-23T22:54:36.097Z,30.50
2017-06-23T22:57:03.636Z,29.90
2017-06-23T22:59:31.136Z,29.80
2017-06-23T23:01:58.646Z,34.17
2017-06-23T23:04:26.166Z,28.43
2017-06-23T23:06:54.443Z,34.50
2017-06-23T23:09:22.702Z,27.47
2017-06-23T23:11:50.365Z,32.07
2017-06-23T23:14:17.854Z,34.33
2017-06-23T23:16:45.339Z,28.60
2017-06-23T23:19:12.868Z,30.90
2017-06-23T23:21:40.372Z,25.13
2017-06-23T23:24:07.863Z,37.67
2017-06-23T23:26:36.195Z,29.57
2017-06-23T23:29:03.693Z,32.07
2017-06-23T23:31:31.213Z,31.30
2017-06-23T23:33:58.735Z,25.57
2017-06-23T23:36:26.222Z,36.33
2017-06-23T23:38:53.722Z,25.23
2017-06-23T23:41:21.258Z,28.70
2017-06-23T23:43:49.036Z,30.03
2017-06-23T23:46:16.542Z,32.80
2017-06-23T23:48:44.068Z,31.90
2017-06-23T23:51:11.575Z,30.37
2017-06-23T23:53:39.075Z,29.80
2017-06-23T23:56:06.767Z,30.60
2017-06-23T23:58:35.038Z,27.93
